createdAt,value
2019-02-22T00:02:05.728Z,36.70
2019-02-22T00:04:34.160Z,35.00
2019-02-22T00:07:02.624Z,39.90
2019-02-22T00:09:31.134Z,33.03
2019-02-22T00:11:59.664Z,35.17
2019-02-22T00:14:28.114Z,36.77
2019-02-22T00:16:56.572Z,34.57
2019-02-22T00:19:25.008Z,39.77
2019-02-22T00:21:53.507Z,37.43
2019-02-22T00:24:22.111Z,35.97
2019-02-22T00:26:50.582Z,37.00
2019-02-22T00:29:19.099Z,36.40
2019-02-22T00:31:47.613Z,34.53
2019-02-22T00:34:16.069Z,36.63
2019-02-22T00:36:44.626Z,34.80
2019-02-22T00:39:13.217Z,35.50
2019-02-22T00:41:41.727Z,35.37
2019-02-22T00:44:10.253Z,34.00
2019-02-22T00:46:38.679Z,35.77
2019-02-22T00:49:07.149Z,37.90
2019-02-22T00:51:35.587Z,36.97
2019-02-22T00:54:04.118Z,34.30
2019-02-22T00:56:32.560Z,36.43
2019-02-22T00:59:01.022Z,35.50
2019-02-22T01:01:29.475Z,38.20
2019-02-22T01:03:57.951Z,41.23
2019-02-22T01:06:26.397Z,38.10
2019-02-22T01:08:54.847Z,37.30
2019-02-22T01:11:23.286Z,38.47
2019-02-22T01:13:51.775Z,38.43
2019-02-22T01:16:20.211Z,41.40
2019-02-22T01:18:48.690Z,46.20
2019-02-22T01:21:17.125Z,41.17
2019-02-22T01:23:45.667Z,43.23
2019-02-22T01:26:14.119Z,42.33
2019-02-22T01:28:42.627Z,42.90
2019-02-22T01:31:11.064Z,42.90
2019-02-22T01:33:39.507Z,50.83
2019-02-22T01:36:07.970Z,47.77
2019-02-22T01:38:36.439Z,48.17
2019-02-22T01:41:04.885Z,49.10
2019-02-22T01:43:33.538Z,46.20
2019-02-22T01:46:02.201Z,55.30
2019-02-22T01:48:30.712Z,45.87
2019-02-22T01:50:59.167Z,51.63
2019-02-22T01:53:27.712Z,44.87
2019-02-22T01:55:56.170Z,52.53
2019-02-22T01:58:24.667Z,45.80
2019-02-22T02:00:53.129Z,51.83
2019-02-22T02:03:21.704Z,46.67
2019-02-22T02:05:50.284Z,56.70
2019-02-22T02:08:18.850Z,48.77
2019-02-22T02:10:54.155Z,50.83
2019-02-22T02:13:17.688Z,45.30
2019-02-22T02:15:46.142Z,53.00
2019-02-22T02:18:14.658Z,51.73
2019-02-22T02:20:43.180Z,52.97
2019-02-22T02:23:11.663Z,52.70
2019-02-22T02:25:40.132Z,48.83
2019-02-22T02:28:08.567Z,47.30
2019-02-22T02:30:37.045Z,47.77
2019-02-22T02:33:05.506Z,46.33
2019-02-22T02:35:34.034Z,50.53
2019-02-22T02:38:02.464Z,44.70
2019-02-22T02:40:30.906Z,58.53
2019-02-22T02:42:59.348Z,46.93
2019-02-22T02:45:27.797Z,46.60
2019-02-22T02:47:56.247Z,53.90
2019-02-22T02:50:24.711Z,55.50
2019-02-22T02:52:53.251Z,59.93
2019-02-22T02:55:30.112Z,47.87
2019-02-22T02:57:58.627Z,54.10
2019-02-22T03:00:27.300Z,44.13
2019-02-22T03:02:55.764Z,42.80
2019-02-22T03:05:25.972Z,42.17
2019-02-22T03:07:56.137Z,43.97
2019-02-22T03:10:24.629Z,41.90
2019-02-22T03:12:53.092Z,43.60
2019-02-22T03:15:21.522Z,46.57
2019-02-22T03:17:49.975Z,44.97
2019-02-22T03:20:18.407Z,47.70
2019-02-22T03:22:46.854Z,42.87
2019-02-22T03:25:15.295Z,50.10
2019-02-22T03:27:43.750Z,47.07
2019-02-22T03:30:12.251Z,46.87
2019-02-22T03:32:40.691Z,46.40
2019-02-22T03:35:09.121Z,41.17
2019-02-22T03:37:37.570Z,48.20
2019-02-22T03:40:07.736Z,43.17
2019-02-22T03:42:36.190Z,45.13
2019-02-22T03:45:06.674Z,42.47
2019-02-22T03:47:35.536Z,48.47
2019-02-22T03:50:05.690Z,38.43
2019-02-22T03:52:44.789Z,38.20
2019-02-22T03:55:13.473Z,46.50
2019-02-22T03:57:41.916Z,40.37
2019-02-22T04:00:11.014Z,42.07
2019-02-22T04:02:39.527Z,44.50
2019-02-22T04:05:08.528Z,43.17
2019-02-22T04:07:37.023Z,42.13
2019-02-22T04:10:07.221Z,42.53
2019-02-22T04:12:35.677Z,45.30
2019-02-22T04:15:06.538Z,40.47
2019-02-22T04:17:35.030Z,46.73
2019-02-22T04:20:03.647Z,40.23
2019-02-22T04:22:32.096Z,37.40
2019-02-22T04:25:00.688Z,42.50
2019-02-22T04:27:29.216Z,40.83
2019-02-22T04:29:57.669Z,45.57
2019-02-22T04:32:26.099Z,37.37
2019-02-22T04:34:54.561Z,36.33
2019-02-22T04:37:23.021Z,40.00
2019-02-22T04:39:51.453Z,45.23
2019-02-22T04:42:19.888Z,49.27
2019-02-22T04:44:48.343Z,49.40
2019-02-22T04:47:16.756Z,46.00
2019-02-22T04:49:45.207Z,43.43
2019-02-22T04:52:13.642Z,42.67
2019-02-22T04:54:42.104Z,48.80
2019-02-22T04:57:10.535Z,44.67
2019-02-22T04:59:38.986Z,46.90
2019-02-22T05:02:07.415Z,53.30
2019-02-22T05:04:35.918Z,46.33
2019-02-22T05:07:04.388Z,49.67
2019-02-22T05:09:32.799Z,48.10
2019-02-22T05:12:10.406Z,48.40
2019-02-22T05:14:31.411Z,48.57
2019-02-22T05:16:59.895Z,54.63
2019-02-22T05:19:28.366Z,56.33
2019-02-22T05:21:56.819Z,52.57
2019-02-22T05:24:25.331Z,50.17
2019-02-22T05:26:53.860Z,48.63
2019-02-22T05:29:22.393Z,47.07
2019-02-22T05:31:50.817Z,47.67
2019-02-22T05:34:19.277Z,45.83
2019-02-22T05:36:47.741Z,51.90
2019-02-22T05:39:19.421Z,42.77
2019-02-22T05:41:46.328Z,52.33
2019-02-22T05:44:14.759Z,50.40
2019-02-22T05:46:43.200Z,50.27
2019-02-22T05:49:11.730Z,52.30
2019-02-22T05:51:40.199Z,53.57
2019-02-22T05:54:08.672Z,47.60
2019-02-22T05:56:37.088Z,43.13
2019-02-22T05:59:05.697Z,51.10
2019-02-22T06:01:34.140Z,45.80
2019-02-22T06:04:02.610Z,46.93
2019-02-22T06:06:31.077Z,42.10
2019-02-22T06:08:59.540Z,45.00
2019-02-22T06:11:27.988Z,49.20
2019-02-22T06:13:56.459Z,44.97
2019-02-22T06:16:24.901Z,46.93
2019-02-22T06:18:53.348Z,47.63
2019-02-22T06:21:21.784Z,50.00
2019-02-22T06:23:50.234Z,54.27
2019-02-22T06:26:18.732Z,51.43
2019-02-22T06:28:47.189Z,48.67
2019-02-22T06:31:15.626Z,48.77
2019-02-22T06:33:44.088Z,55.13
2019-02-22T06:36:12.511Z,50.53
2019-02-22T06:38:41.146Z,57.07
2019-02-22T06:41:09.579Z,52.87
2019-02-22T06:43:38.033Z,59.40
2019-02-22T06:46:06.471Z,56.03
2019-02-22T06:48:34.939Z,55.07
2019-02-22T06:51:03.375Z,54.10
2019-02-22T06:53:31.790Z,52.20
2019-02-22T06:56:00.273Z,54.63
2019-02-22T06:58:28.751Z,51.83
2019-02-22T07:00:57.187Z,48.53
2019-02-22T07:03:25.630Z,50.17
2019-02-22T07:05:54.110Z,46.23
2019-02-22T07:08:22.569Z,47.93
2019-02-22T07:11:01.240Z,47.93
2019-02-22T07:13:29.861Z,48.97
2019-02-22T07:15:58.396Z,47.60
2019-02-22T07:18:26.896Z,49.23
2019-02-22T07:20:55.339Z,45.00
2019-02-22T07:23:23.777Z,52.97
2019-02-22T07:25:52.317Z,53.57
2019-02-22T07:28:20.765Z,48.33
2019-02-22T07:30:49.396Z,50.07
2019-02-22T07:33:17.819Z,45.90
2019-02-22T07:35:46.300Z,46.30
2019-02-22T07:38:14.811Z,49.77
2019-02-22T07:40:43.258Z,48.10
2019-02-22T07:43:11.694Z,47.37
2019-02-22T07:45:40.139Z,50.40
2019-02-22T07:48:08.604Z,50.47
2019-02-22T07:50:37.054Z,45.07
2019-02-22T07:53:05.756Z,51.77
2019-02-22T07:55:34.240Z,48.77
2019-02-22T07:58:02.803Z,45.87
2019-02-22T08:00:31.367Z,44.57
2019-02-22T08:02:59.827Z,47.80
2019-02-22T08:05:28.375Z,48.43
2019-02-22T08:07:56.835Z,46.70
2019-02-22T08:10:26.284Z,44.17
2019-02-22T08:12:54.991Z,44.00
2019-02-22T08:15:23.424Z,46.10
2019-02-22T08:17:51.903Z,40.67
2019-02-22T08:20:20.355Z,42.03
2019-02-22T08:22:48.811Z,44.70
2019-02-22T08:25:17.507Z,44.47
2019-02-22T08:27:53.834Z,42.40
2019-02-22T08:30:16.187Z,43.30
2019-02-22T08:32:44.647Z,42.17
2019-02-22T08:35:13.083Z,45.60
2019-02-22T08:37:41.616Z,46.40
2019-02-22T08:40:10.818Z,42.53
2019-02-22T08:42:39.353Z,42.63
2019-02-22T08:45:09.765Z,44.07
2019-02-22T08:47:38.378Z,42.63
2019-02-22T08:50:07.852Z,39.87
2019-02-22T08:52:36.404Z,40.93
2019-02-22T08:55:06.176Z,42.17
2019-02-22T08:57:34.647Z,40.03
2019-02-22T09:00:03.241Z,41.63
2019-02-22T09:02:31.671Z,40.23
2019-02-22T09:05:00.320Z,41.50
2019-02-22T09:07:28.812Z,41.30
2019-02-22T09:09:57.282Z,44.83
2019-02-22T09:12:25.728Z,46.40
2019-02-22T09:14:54.178Z,41.20
2019-02-22T09:17:22.633Z,42.20
2019-02-22T09:19:51.243Z,40.97
2019-02-22T09:22:22.858Z,38.77
2019-02-22T09:24:49.939Z,40.63
2019-02-22T09:27:18.371Z,45.30
2019-02-22T09:29:58.149Z,46.33
2019-02-22T09:32:17.115Z,40.13
2019-02-22T09:34:46.244Z,43.03
2019-02-22T09:37:14.943Z,38.30
2019-02-22T09:39:43.407Z,40.23
2019-02-22T09:42:11.841Z,36.77
2019-02-22T09:44:40.317Z,36.47
2019-02-22T09:47:08.835Z,34.87
2019-02-22T09:49:37.283Z,36.10
2019-02-22T09:52:05.823Z,34.77
2019-02-22T09:54:34.260Z,33.03
2019-02-22T09:57:02.741Z,31.50
2019-02-22T09:59:31.158Z,33.80
2019-02-22T10:01:59.622Z,32.03
2019-02-22T10:04:28.217Z,32.67
2019-02-22T10:06:56.928Z,30.83
2019-02-22T10:09:25.342Z,30.43
2019-02-22T10:11:53.821Z,32.23
2019-02-22T10:14:22.380Z,29.03
2019-02-22T10:16:50.943Z,28.47
2019-02-22T10:19:19.450Z,29.37
2019-02-22T10:21:48.138Z,29.57
2019-02-22T10:24:16.629Z,25.93
2019-02-22T10:26:45.131Z,24.80
2019-02-22T10:29:13.640Z,25.23
2019-02-22T10:31:42.106Z,23.23
2019-02-22T10:34:10.530Z,23.30
2019-02-22T10:36:45.054Z,22.17
2019-02-22T10:39:09.182Z,22.27
2019-02-22T10:41:37.615Z,19.87
2019-02-22T10:44:15.019Z,21.33
2019-02-22T10:46:36.298Z,23.17
2019-02-22T10:49:04.773Z,21.33
2019-02-22T10:51:34.196Z,22.27
2019-02-22T10:54:02.864Z,22.37
2019-02-22T10:56:31.301Z,23.10
2019-02-22T10:58:59.780Z,23.83
2019-02-22T11:01:28.218Z,22.53
2019-02-22T11:03:56.684Z,24.43
2019-02-22T11:06:25.183Z,20.63
2019-02-22T11:08:53.673Z,17.60
2019-02-22T11:11:22.112Z,15.70
2019-02-22T11:13:50.577Z,15.80
2019-02-22T11:16:19.111Z,15.13
2019-02-22T11:18:47.563Z,15.70
2019-02-22T11:21:16.097Z,17.33
2019-02-22T11:23:44.552Z,15.50
2019-02-22T11:26:13.161Z,15.17
2019-02-22T11:28:41.663Z,15.17
2019-02-22T11:31:10.147Z,13.23
2019-02-22T11:33:38.584Z,9.30
2019-02-22T11:36:07.051Z,10.30
2019-02-22T11:38:35.492Z,10.10
2019-02-22T11:41:04.168Z,11.63
2019-02-22T11:43:32.679Z,11.63
2019-02-22T11:46:01.248Z,11.90
2019-02-22T11:48:29.740Z,10.73
2019-02-22T11:50:58.202Z,11.70
2019-02-22T11:53:26.628Z,10.93
2019-02-22T11:55:55.087Z,11.17
2019-02-22T11:58:23.599Z,9.93
2019-02-22T12:00:52.158Z,7.53
2019-02-22T12:03:24.547Z,8.50
2019-02-22T12:05:50.979Z,8.00
2019-02-22T12:08:19.399Z,6.77
2019-02-22T12:10:48.081Z,7.67
2019-02-22T12:13:16.580Z,7.53
2019-02-22T12:15:45.031Z,6.50
2019-02-22T12:18:13.535Z,5.40
2019-02-22T12:20:42.035Z,5.70
2019-02-22T12:23:10.467Z,5.50
2019-02-22T12:25:38.960Z,5.40
2019-02-22T12:28:07.455Z,4.87
2019-02-22T12:30:36.022Z,4.57
2019-02-22T12:33:04.468Z,4.87
2019-02-22T12:35:32.969Z,5.73
2019-02-22T12:38:01.441Z,6.07
2019-02-22T12:40:30.048Z,6.07
2019-02-22T12:42:58.577Z,5.60
2019-02-22T12:45:27.001Z,5.33
2019-02-22T12:47:55.466Z,6.83
2019-02-22T12:50:23.916Z,5.60
2019-02-22T12:52:52.430Z,5.30
2019-02-22T12:55:20.870Z,5.80
2019-02-22T12:57:49.325Z,5.83
2019-02-22T13:00:18.897Z,5.37
2019-02-22T13:02:47.347Z,4.80
2019-02-22T13:05:18.486Z,4.47
2019-02-22T13:08:06.283Z,4.83
2019-02-22T13:10:34.717Z,4.57
2019-02-22T13:13:03.194Z,4.23
2019-02-22T13:15:31.740Z,4.20
2019-02-22T13:18:02.826Z,4.17
2019-02-22T13:20:30.624Z,3.83
2019-02-22T13:22:59.080Z,4.23
2019-02-22T13:25:27.517Z,4.20
2019-02-22T13:27:56.051Z,4.23
2019-02-22T13:30:24.476Z,3.90
2019-02-22T13:32:52.937Z,4.10
2019-02-22T13:35:21.464Z,4.30
2019-02-22T13:37:49.906Z,4.37
2019-02-22T13:40:18.838Z,4.17
2019-02-22T13:42:47.310Z,4.00
2019-02-22T13:45:25.850Z,3.73
2019-02-22T13:47:46.429Z,4.03
2019-02-22T13:50:16.261Z,4.20
2019-02-22T13:52:44.693Z,3.70
2019-02-22T13:55:14.076Z,4.00
2019-02-22T13:57:42.581Z,3.80
2019-02-22T14:00:19.038Z,4.17
2019-02-22T14:02:47.535Z,4.50
2019-02-22T14:05:16.166Z,4.23
2019-02-22T14:07:54.705Z,4.20
2019-02-22T14:10:23.996Z,4.57
2019-02-22T14:12:52.518Z,4.43
2019-02-22T14:15:21.599Z,4.40
2019-02-22T14:17:50.406Z,4.00
2019-02-22T14:20:19.008Z,4.57
2019-02-22T14:22:49.210Z,3.90
2019-02-22T14:25:17.743Z,4.23
2019-02-22T14:27:46.163Z,3.80
2019-02-22T14:30:15.901Z,4.27
2019-02-22T14:32:44.488Z,4.03
2019-02-22T14:35:13.188Z,4.30
2019-02-22T14:37:41.703Z,3.80
2019-02-22T14:40:11.808Z,5.67
2019-02-22T14:42:40.271Z,4.40
2019-02-22T14:45:12.276Z,4.43
2019-02-22T14:47:40.782Z,3.57
2019-02-22T14:50:12.291Z,3.80
2019-02-22T14:52:40.740Z,4.30
2019-02-22T14:55:09.795Z,3.77
2019-02-22T14:57:38.372Z,3.97
2019-02-22T15:00:10.367Z,4.00
2019-02-22T15:02:38.831Z,3.70
2019-02-22T15:05:09.267Z,3.80
2019-02-22T15:07:37.824Z,6.93
2019-02-22T15:10:08.493Z,3.87
2019-02-22T15:12:37.030Z,4.27
2019-02-22T15:15:08.798Z,3.90
2019-02-22T15:17:47.946Z,4.30
2019-02-22T15:20:16.453Z,3.70
2019-02-22T15:22:45.003Z,4.13
2019-02-22T15:25:15.465Z,4.30
2019-02-22T15:27:43.920Z,4.20
2019-02-22T15:30:15.368Z,4.80
2019-02-22T15:32:43.830Z,4.10
2019-02-22T15:35:14.297Z,4.80
2019-02-22T15:37:43.438Z,4.80
2019-02-22T15:40:13.099Z,4.50
2019-02-22T15:42:41.525Z,5.33
2019-02-22T15:45:17.569Z,5.03
2019-02-22T15:47:48.625Z,4.43
2019-02-22T15:50:17.647Z,4.27
2019-02-22T15:52:47.218Z,6.73
2019-02-22T15:55:15.675Z,6.53
2019-02-22T15:57:44.096Z,5.40
2019-02-22T16:00:15.648Z,4.80
2019-02-22T16:02:44.075Z,5.07
2019-02-22T16:05:14.416Z,5.20
2019-02-22T16:07:44.889Z,5.37
2019-02-22T16:10:13.738Z,4.90
2019-02-22T16:12:42.187Z,5.27
2019-02-22T16:15:11.961Z,5.43
2019-02-22T16:17:40.554Z,5.10
2019-02-22T16:20:09.168Z,4.83
2019-02-22T16:22:51.414Z,4.83
2019-02-22T16:25:20.288Z,5.40
2019-02-22T16:27:48.909Z,5.00
2019-02-22T16:30:19.764Z,4.90
2019-02-22T16:32:48.199Z,4.93
2019-02-22T16:35:16.817Z,4.50
2019-02-22T16:37:45.231Z,4.80
2019-02-22T16:40:13.692Z,4.70
2019-02-22T16:42:42.157Z,4.50
2019-02-22T16:45:12.205Z,4.63
2019-02-22T16:47:40.831Z,4.73
2019-02-22T16:50:11.302Z,4.50
2019-02-22T16:52:39.819Z,4.03
2019-02-22T16:55:16.141Z,4.37
2019-02-22T16:57:44.666Z,5.43
2019-02-22T17:00:15.099Z,4.80
2019-02-22T17:02:43.711Z,5.10
2019-02-22T17:05:16.482Z,5.80
2019-02-22T17:07:44.939Z,5.50
2019-02-22T17:10:13.609Z,6.57
2019-02-22T17:12:42.067Z,6.20
2019-02-22T17:15:12.040Z,5.57
2019-02-22T17:17:40.512Z,5.90
2019-02-22T17:20:11.786Z,6.03
2019-02-22T17:22:40.298Z,6.53
2019-02-22T17:25:11.851Z,5.87
2019-02-22T17:27:40.317Z,6.70
2019-02-22T17:30:11.764Z,5.93
2019-02-22T17:32:40.293Z,5.93
2019-02-22T17:35:08.737Z,6.17
2019-02-22T17:37:37.205Z,5.63
2019-02-22T17:40:11.279Z,8.40
2019-02-22T17:42:39.738Z,7.30
2019-02-22T17:45:08.243Z,6.20
2019-02-22T17:47:36.775Z,7.10
2019-02-22T17:50:07.539Z,7.20
2019-02-22T17:52:35.983Z,8.10
2019-02-22T17:55:06.179Z,7.43
2019-02-22T17:57:34.608Z,7.37
2019-02-22T18:00:03.973Z,6.90
2019-02-22T18:02:32.571Z,7.60
2019-02-22T18:05:01.023Z,6.67
2019-02-22T18:07:29.495Z,6.70
2019-02-22T18:09:58.006Z,6.80
2019-02-22T18:12:26.488Z,7.03
2019-02-22T18:14:55.002Z,7.10
2019-02-22T18:17:23.515Z,7.80
2019-02-22T18:19:52.135Z,10.10
2019-02-22T18:22:25.875Z,7.73
2019-02-22T18:24:50.856Z,7.50
2019-02-22T18:27:19.283Z,7.80
2019-02-22T18:29:48.067Z,8.00
2019-02-22T18:32:16.575Z,7.73
2019-02-22T18:34:45.106Z,9.03
2019-02-22T18:37:13.607Z,9.17
2019-02-22T18:39:42.071Z,10.20
2019-02-22T18:42:10.529Z,10.33
2019-02-22T18:44:39.006Z,10.47
2019-02-22T18:47:07.499Z,9.70
2019-02-22T18:49:35.928Z,10.70
2019-02-22T18:52:04.552Z,10.33
2019-02-22T18:54:33.153Z,10.17
2019-02-22T18:57:01.604Z,10.17
2019-02-22T18:59:30.080Z,10.63
2019-02-22T19:01:58.647Z,11.67
2019-02-22T19:04:27.188Z,11.77
2019-02-22T19:06:55.695Z,11.30
2019-02-22T19:09:24.452Z,11.90
2019-02-22T19:11:52.967Z,13.33
2019-02-22T19:14:21.419Z,12.30
2019-02-22T19:16:50.072Z,12.53
2019-02-22T19:19:18.561Z,13.10
2019-02-22T19:21:47.298Z,13.47
2019-02-22T19:24:15.881Z,13.07
2019-02-22T19:26:44.315Z,13.13
2019-02-22T19:29:12.770Z,14.30
2019-02-22T19:31:41.247Z,16.33
2019-02-22T19:34:09.700Z,15.37
2019-02-22T19:36:38.161Z,13.77
2019-02-22T19:39:06.743Z,13.70
2019-02-22T19:41:35.570Z,13.17
2019-02-22T19:44:04.031Z,14.67
2019-02-22T19:46:32.480Z,13.67
2019-02-22T19:49:00.959Z,13.63
2019-02-22T19:51:29.435Z,13.87
2019-02-22T19:53:58.327Z,13.07
2019-02-22T19:56:26.843Z,14.07
2019-02-22T19:58:55.303Z,13.97
2019-02-22T20:01:23.745Z,13.47
2019-02-22T20:03:52.207Z,14.47
2019-02-22T20:06:20.721Z,14.23
2019-02-22T20:08:49.226Z,13.20
2019-02-22T20:11:17.751Z,15.07
2019-02-22T20:13:46.276Z,14.57
2019-02-22T20:16:14.787Z,14.83
2019-02-22T20:18:43.438Z,14.20
2019-02-22T20:21:14.281Z,14.63
2019-02-22T20:23:42.503Z,14.87
2019-02-22T20:26:10.976Z,14.00
2019-02-22T20:28:39.668Z,14.77
2019-02-22T20:31:08.212Z,13.73
2019-02-22T20:33:36.678Z,14.67
2019-02-22T20:36:05.254Z,14.97
2019-02-22T20:38:33.729Z,15.67
2019-02-22T20:41:02.570Z,14.40
2019-02-22T20:43:31.113Z,14.67
2019-02-22T20:45:59.609Z,14.20
2019-02-22T20:48:28.111Z,13.87
2019-02-22T20:50:56.645Z,13.47
2019-02-22T20:53:25.079Z,14.40
2019-02-22T20:55:53.574Z,13.17
2019-02-22T20:58:22.805Z,12.87
2019-02-22T21:00:51.407Z,13.57
2019-02-22T21:03:20.773Z,13.33
2019-02-22T21:05:49.281Z,13.30
2019-02-22T21:08:17.715Z,13.00
2019-02-22T21:10:46.196Z,13.73
2019-02-22T21:13:14.632Z,14.27
2019-02-22T21:15:43.131Z,13.37
2019-02-22T21:18:16.343Z,14.03
2019-02-22T21:20:42.027Z,13.93
2019-02-22T21:23:10.475Z,14.00
2019-02-22T21:25:38.947Z,13.77
2019-02-22T21:28:07.388Z,13.80
2019-02-22T21:30:35.892Z,13.80
2019-02-22T21:33:04.373Z,13.57
2019-02-22T21:35:32.863Z,14.57
2019-02-22T21:38:01.352Z,15.63
2019-02-22T21:40:29.928Z,14.27
2019-02-22T21:42:58.562Z,15.10
2019-02-22T21:45:27.059Z,15.10
2019-02-22T21:47:55.872Z,15.07
2019-02-22T21:50:24.446Z,13.40
2019-02-22T21:52:52.925Z,16.50
2019-02-22T21:55:21.373Z,15.23
2019-02-22T21:57:49.979Z,14.83
2019-02-22T22:00:24.080Z,14.37
2019-02-22T22:02:52.663Z,13.20
2019-02-22T22:05:21.174Z,14.73
2019-02-22T22:07:49.705Z,14.67
2019-02-22T22:10:18.276Z,14.80
2019-02-22T22:12:46.837Z,14.80
2019-02-22T22:15:16.102Z,14.37
2019-02-22T22:17:44.575Z,15.27
2019-02-22T22:20:13.544Z,13.70
2019-02-22T22:22:42.049Z,13.60
2019-02-22T22:25:12.400Z,13.40
2019-02-22T22:27:40.864Z,14.40
2019-02-22T22:30:14.196Z,13.80
2019-02-22T22:32:43.008Z,14.60
2019-02-22T22:35:13.745Z,14.43
2019-02-22T22:37:42.200Z,14.23
2019-02-22T22:40:11.225Z,14.40
2019-02-22T22:42:39.728Z,14.87
2019-02-22T22:45:29.120Z,13.93
2019-02-22T22:47:57.683Z,14.00
2019-02-22T22:50:26.125Z,14.80
2019-02-22T22:52:54.560Z,13.53
2019-02-22T22:55:23.025Z,14.77
2019-02-22T22:57:51.458Z,14.07
2019-02-22T23:00:47.459Z,13.67
2019-02-22T23:03:15.951Z,14.23
2019-02-22T23:05:44.544Z,14.10
2019-02-22T23:08:12.986Z,14.50
2019-02-22T23:10:41.621Z,14.17
2019-02-22T23:13:10.119Z,14.60
2019-02-22T23:15:38.675Z,14.63
2019-02-22T23:18:07.241Z,14.57
2019-02-22T23:20:35.763Z,14.00
2019-02-22T23:23:04.340Z,14.00
2019-02-22T23:25:32.823Z,15.03
2019-02-22T23:28:01.279Z,13.67
2019-02-22T23:30:29.867Z,14.43
2019-02-22T23:32:58.304Z,14.30
2019-02-22T23:35:26.782Z,14.57
2019-02-22T23:37:55.280Z,14.30
2019-02-22T23:40:23.767Z,14.33
2019-02-22T23:42:52.201Z,14.87
2019-02-22T23:45:20.666Z,13.93
2019-02-22T23:47:49.102Z,13.97
2019-02-22T23:50:17.584Z,13.27
2019-02-22T23:52:46.058Z,13.87
2019-02-22T23:55:14.556Z,12.57
2019-02-22T23:57:43.024Z,13.50
